sensor_id;sensor_type;location;lat;lon;timestamp;pressure;altitude;pressure_sealevel;temperature;humidity
15487;BME280;7845;53.698;10.078;2023-05-09T00:00:11;101716.75;;;17.79;56.81
15487;BME280;7845;53.698;10.078;2023-05-09T00:02:41;101720.66;;;18.01;56.56
15487;BME280;7845;53.698;10.078;2023-05-09T00:05:11;101726.22;;;17.89;56.59
15487;BME280;7845;53.698;10.078;2023-05-09T00:07:37;101718.44;;;17.83;56.84
15487;BME280;7845;53.698;10.078;2023-05-09T00:10:03;101724.25;;;17.58;57.53
15487;BME280;7845;53.698;10.078;2023-05-09T00:12:29;101723.94;;;17.72;57.27
15487;BME280;7845;53.698;10.078;2023-05-09T00:14:54;101730.56;;;17.50;58.24
15487;BME280;7845;53.698;10.078;2023-05-09T00:17:21;101724.34;;;17.52;58.37
15487;BME280;7845;53.698;10.078;2023-05-09T00:19:50;101724.25;;;17.57;57.56
15487;BME280;7845;53.698;10.078;2023-05-09T00:22:17;101728.88;;;17.46;58.66
15487;BME280;7845;53.698;10.078;2023-05-09T00:24:45;101720.53;;;17.67;58.20
15487;BME280;7845;53.698;10.078;2023-05-09T00:27:11;101713.50;;;17.66;58.16
15487;BME280;7845;53.698;10.078;2023-05-09T00:29:37;101718.84;;;17.63;58.32
15487;BME280;7845;53.698;10.078;2023-05-09T00:32:03;101717.22;;;17.13;59.55
15487;BME280;7845;53.698;10.078;2023-05-09T00:34:30;101706.19;;;17.36;59.20
15487;BME280;7845;53.698;10.078;2023-05-09T00:36:57;101704.63;;;17.27;59.88
15487;BME280;7845;53.698;10.078;2023-05-09T00:39:23;101706.25;;;17.34;59.68
15487;BME280;7845;53.698;10.078;2023-05-09T00:41:50;101695.06;;;17.22;59.38
15487;BME280;7845;53.698;10.078;2023-05-09T00:44:15;101694.25;;;17.18;58.90
15487;BME280;7845;53.698;10.078;2023-05-09T00:46:40;101690.78;;;17.14;60.25
15487;BME280;7845;53.698;10.078;2023-05-09T00:49:07;101687.06;;;17.26;59.91
15487;BME280;7845;53.698;10.078;2023-05-09T00:51:39;101689.50;;;17.35;60.33
15487;BME280;7845;53.698;10.078;2023-05-09T00:54:06;101685.38;;;17.22;60.08
15487;BME280;7845;53.698;10.078;2023-05-09T00:56:31;101684.50;;;17.22;60.16
15487;BME280;7845;53.698;10.078;2023-05-09T00:58:59;101684.41;;;16.82;61.11
15487;BME280;7845;53.698;10.078;2023-05-09T01:01:25;101673.38;;;17.06;60.56
15487;BME280;7845;53.698;10.078;2023-05-09T01:03:51;101675.25;;;17.01;61.49
15487;BME280;7845;53.698;10.078;2023-05-09T01:06:25;101667.84;;;17.20;60.56
15487;BME280;7845;53.698;10.078;2023-05-09T01:11:48;101653.34;;;16.97;60.75
15487;BME280;7845;53.698;10.078;2023-05-09T01:14:45;101661.13;;;17.05;61.11
15487;BME280;7845;53.698;10.078;2023-05-09T01:17:24;101657.41;;;17.13;61.03
15487;BME280;7845;53.698;10.078;2023-05-09T01:22:46;101651.69;;;16.92;62.11
15487;BME280;7845;53.698;10.078;2023-05-09T01:30:50;101642.50;;;16.68;62.93
15487;BME280;7845;53.698;10.078;2023-05-09T01:33:18;101637.00;;;16.80;63.17
15487;BME280;7845;53.698;10.078;2023-05-09T01:35:48;101639.81;;;16.70;63.60
15487;BME280;7845;53.698;10.078;2023-05-09T01:38:19;101630.84;;;16.80;62.83
15487;BME280;7845;53.698;10.078;2023-05-09T01:40:48;101630.91;;;16.77;62.92
15487;BME280;7845;53.698;10.078;2023-05-09T01:43:16;101635.56;;;16.63;63.94
15487;BME280;7845;53.698;10.078;2023-05-09T01:45:44;101632.88;;;16.66;64.64
15487;BME280;7845;53.698;10.078;2023-05-09T01:48:12;101623.31;;;16.60;64.68
15487;BME280;7845;53.698;10.078;2023-05-09T01:50:40;101625.91;;;16.62;64.56
15487;BME280;7845;53.698;10.078;2023-05-09T01:53:10;101621.53;;;16.62;64.66
15487;BME280;7845;53.698;10.078;2023-05-09T01:55:38;101621.75;;;16.48;64.66
15487;BME280;7845;53.698;10.078;2023-05-09T01:58:06;101620.28;;;16.31;64.84
15487;BME280;7845;53.698;10.078;2023-05-09T02:00:33;101622.47;;;16.58;65.25
15487;BME280;7845;53.698;10.078;2023-05-09T02:03:00;101621.97;;;16.36;66.48
15487;BME280;7845;53.698;10.078;2023-05-09T02:05:27;101625.44;;;16.37;65.56
15487;BME280;7845;53.698;10.078;2023-05-09T02:07:54;101616.59;;;16.42;65.59
15487;BME280;7845;53.698;10.078;2023-05-09T02:10:23;101624.72;;;16.30;66.00
15487;BME280;7845;53.698;10.078;2023-05-09T02:12:51;101626.47;;;16.30;66.15
15487;BME280;7845;53.698;10.078;2023-05-09T02:15:17;101623.63;;;16.40;66.37
15487;BME280;7845;53.698;10.078;2023-05-09T02:17:42;101624.94;;;16.17;66.97
15487;BME280;7845;53.698;10.078;2023-05-09T02:20:08;101631.22;;;16.10;67.19
15487;BME280;7845;53.698;10.078;2023-05-09T02:22:35;101622.97;;;16.29;66.99
15487;BME280;7845;53.698;10.078;2023-05-09T02:25:02;101619.19;;;16.44;66.83
15487;BME280;7845;53.698;10.078;2023-05-09T02:27:30;101618.53;;;16.33;67.18
15487;BME280;7845;53.698;10.078;2023-05-09T02:29:57;101611.56;;;16.29;67.39
15487;BME280;7845;53.698;10.078;2023-05-09T02:32:30;101610.53;;;16.37;66.98
15487;BME280;7845;53.698;10.078;2023-05-09T02:35:00;101616.16;;;16.16;67.67
15487;BME280;7845;53.698;10.078;2023-05-09T02:37:28;101611.72;;;16.20;67.81
15487;BME280;7845;53.698;10.078;2023-05-09T02:39:54;101612.75;;;16.13;68.22
15487;BME280;7845;53.698;10.078;2023-05-09T02:42:25;101608.56;;;15.98;67.88
15487;BME280;7845;53.698;10.078;2023-05-09T02:44:53;101616.75;;;15.83;69.50
15487;BME280;7845;53.698;10.078;2023-05-09T02:47:19;101610.56;;;15.84;69.91
15487;BME280;7845;53.698;10.078;2023-05-09T02:49:45;101610.78;;;15.70;70.11
15487;BME280;7845;53.698;10.078;2023-05-09T02:52:10;101608.06;;;15.76;70.17
15487;BME280;7845;53.698;10.078;2023-05-09T02:54:36;101603.63;;;15.78;70.37
15487;BME280;7845;53.698;10.078;2023-05-09T02:57:02;101602.56;;;15.91;70.30
15487;BME280;7845;53.698;10.078;2023-05-09T02:59:27;101607.00;;;15.88;70.05
15487;BME280;7845;53.698;10.078;2023-05-09T03:01:54;101604.63;;;15.71;70.17
15487;BME280;7845;53.698;10.078;2023-05-09T03:04:19;101601.28;;;15.60;70.72
15487;BME280;7845;53.698;10.078;2023-05-09T03:06:48;101602.25;;;15.53;71.30
15487;BME280;7845;53.698;10.078;2023-05-09T03:09:14;101603.09;;;15.57;71.60
15487;BME280;7845;53.698;10.078;2023-05-09T03:11:39;101589.84;;;15.64;70.93
15487;BME280;7845;53.698;10.078;2023-05-09T03:14:05;101595.09;;;15.63;71.65
15487;BME280;7845;53.698;10.078;2023-05-09T03:16:32;101595.34;;;15.46;72.13
15487;BME280;7845;53.698;10.078;2023-05-09T03:18:58;101590.13;;;15.41;72.61
15487;BME280;7845;53.698;10.078;2023-05-09T03:21:23;101596.16;;;15.53;72.45
15487;BME280;7845;53.698;10.078;2023-05-09T03:23:48;101591.03;;;15.39;72.92
15487;BME280;7845;53.698;10.078;2023-05-09T03:26:15;101595.50;;;15.34;73.49
15487;BME280;7845;53.698;10.078;2023-05-09T03:28:40;101598.09;;;15.37;74.00
15487;BME280;7845;53.698;10.078;2023-05-09T03:31:08;101584.91;;;15.38;73.82
15487;BME280;7845;53.698;10.078;2023-05-09T03:33:33;101582.53;;;15.22;74.38
15487;BME280;7845;53.698;10.078;2023-05-09T03:35:59;101583.59;;;15.06;74.87
15487;BME280;7845;53.698;10.078;2023-05-09T03:38:25;101582.66;;;15.13;75.30
15487;BME280;7845;53.698;10.078;2023-05-09T03:40:52;101573.75;;;15.21;74.98
15487;BME280;7845;53.698;10.078;2023-05-09T03:43:18;101581.72;;;15.15;75.34
15487;BME280;7845;53.698;10.078;2023-05-09T03:45:45;101573.72;;;15.24;75.43
15487;BME280;7845;53.698;10.078;2023-05-09T03:48:10;101578.31;;;15.09;75.78
15487;BME280;7845;53.698;10.078;2023-05-09T03:50:36;101569.47;;;15.14;76.03
15487;BME280;7845;53.698;10.078;2023-05-09T03:53:03;101572.00;;;15.22;75.92
15487;BME280;7845;53.698;10.078;2023-05-09T03:55:28;101568.31;;;15.35;76.03
15487;BME280;7845;53.698;10.078;2023-05-09T03:57:54;101572.53;;;15.45;75.57
15487;BME280;7845;53.698;10.078;2023-05-09T04:00:20;101570.22;;;15.25;76.36
15487;BME280;7845;53.698;10.078;2023-05-09T04:02:48;101564.94;;;15.25;76.51
15487;BME280;7845;53.698;10.078;2023-05-09T04:05:14;101566.44;;;15.41;76.15
15487;BME280;7845;53.698;10.078;2023-05-09T04:07:40;101565.22;;;15.65;75.68
15487;BME280;7845;53.698;10.078;2023-05-09T04:10:06;101557.31;;;15.67;75.50
15487;BME280;7845;53.698;10.078;2023-05-09T04:12:34;101558.38;;;15.55;75.48
15487;BME280;7845;53.698;10.078;2023-05-09T04:15:00;101567.31;;;15.42;76.54
15487;BME280;7845;53.698;10.078;2023-05-09T04:17:25;101564.88;;;15.30;76.90
15487;BME280;7845;53.698;10.078;2023-05-09T04:19:51;101558.41;;;15.54;77.59
15487;BME280;7845;53.698;10.078;2023-05-09T04:22:16;101551.97;;;15.71;75.47
15487;BME280;7845;53.698;10.078;2023-05-09T04:24:43;101543.28;;;16.17;74.48
15487;BME280;7845;53.698;10.078;2023-05-09T04:27:08;101541.31;;;16.28;73.62
15487;BME280;7845;53.698;10.078;2023-05-09T04:29:34;101546.88;;;16.60;73.02
15487;BME280;7845;53.698;10.078;2023-05-09T04:32:00;101532.00;;;16.56;72.96
15487;BME280;7845;53.698;10.078;2023-05-09T04:34:26;101526.31;;;17.15;71.85
15487;BME280;7845;53.698;10.078;2023-05-09T04:36:52;101531.50;;;17.92;70.00
15487;BME280;7845;53.698;10.078;2023-05-09T04:39:17;101504.41;;;18.50;66.66
15487;BME280;7845;53.698;10.078;2023-05-09T04:41:43;101510.22;;;18.63;64.36
15487;BME280;7845;53.698;10.078;2023-05-09T04:44:10;101503.44;;;18.53;63.41
15487;BME280;7845;53.698;10.078;2023-05-09T04:46:36;101505.88;;;18.60;64.18
15487;BME280;7845;53.698;10.078;2023-05-09T04:49:01;101511.66;;;18.73;64.04
15487;BME280;7845;53.698;10.078;2023-05-09T04:51:27;101501.75;;;19.09;62.25
15487;BME280;7845;53.698;10.078;2023-05-09T04:53:55;101496.44;;;19.09;62.72
15487;BME280;7845;53.698;10.078;2023-05-09T04:56:24;101489.81;;;19.51;61.10
15487;BME280;7845;53.698;10.078;2023-05-09T04:58:51;101483.94;;;19.94;60.80
15487;BME280;7845;53.698;10.078;2023-05-09T05:01:17;101481.97;;;19.99;58.93
15487;BME280;7845;53.698;10.078;2023-05-09T05:03:43;101484.19;;;19.62;59.04
15487;BME280;7845;53.698;10.078;2023-05-09T05:06:08;101483.94;;;19.94;59.73
15487;BME280;7845;53.698;10.078;2023-05-09T05:08:34;101470.72;;;20.17;58.91
15487;BME280;7845;53.698;10.078;2023-05-09T05:11:00;101469.75;;;19.95;58.66
15487;BME280;7845;53.698;10.078;2023-05-09T05:13:26;101468.91;;;19.68;58.89
15487;BME280;7845;53.698;10.078;2023-05-09T05:15:51;101470.31;;;19.80;60.16
15487;BME280;7845;53.698;10.078;2023-05-09T05:18:17;101458.47;;;20.39;57.36
15487;BME280;7845;53.698;10.078;2023-05-09T05:20:42;101457.06;;;20.53;56.76
15487;BME280;7845;53.698;10.078;2023-05-09T05:23:08;101434.78;;;22.07;54.25
15487;BME280;7845;53.698;10.078;2023-05-09T05:25:33;101438.06;;;21.72;52.37
15487;BME280;7845;53.698;10.078;2023-05-09T05:28:03;101434.91;;;22.04;52.86
15487;BME280;7845;53.698;10.078;2023-05-09T05:30:31;101448.47;;;21.14;54.32
15487;BME280;7845;53.698;10.078;2023-05-09T05:32:57;101440.78;;;21.70;53.60
15487;BME280;7845;53.698;10.078;2023-05-09T05:35:23;101449.81;;;21.24;53.52
15487;BME280;7845;53.698;10.078;2023-05-09T05:37:49;101448.03;;;21.25;53.57
15487;BME280;7845;53.698;10.078;2023-05-09T05:40:14;101463.19;;;20.55;56.44
15487;BME280;7845;53.698;10.078;2023-05-09T05:42:40;101446.22;;;20.59;56.40
15487;BME280;7845;53.698;10.078;2023-05-09T05:45:05;101460.88;;;19.71;58.96
15487;BME280;7845;53.698;10.078;2023-05-09T05:47:35;101438.19;;;20.37;58.16
15487;BME280;7845;53.698;10.078;2023-05-09T05:50:02;101436.06;;;19.99;57.78
15487;BME280;7845;53.698;10.078;2023-05-09T05:52:29;101449.59;;;19.91;59.21
15487;BME280;7845;53.698;10.078;2023-05-09T05:54:55;101450.97;;;19.24;62.52
15487;BME280;7845;53.698;10.078;2023-05-09T05:57:21;101459.06;;;19.19;62.10
15487;BME280;7845;53.698;10.078;2023-05-09T05:59:47;101453.38;;;19.05;62.58
15487;BME280;7845;53.698;10.078;2023-05-09T06:02:12;101467.88;;;18.32;65.57
15487;BME280;7845;53.698;10.078;2023-05-09T06:04:38;101464.00;;;18.45;64.88
15487;BME280;7845;53.698;10.078;2023-05-09T06:07:03;101465.81;;;18.12;66.01
15487;BME280;7845;53.698;10.078;2023-05-09T06:09:29;101464.31;;;18.04;66.10
15487;BME280;7845;53.698;10.078;2023-05-09T06:11:56;101462.16;;;18.16;67.59
15487;BME280;7845;53.698;10.078;2023-05-09T06:14:21;101459.66;;;17.80;68.72
15487;BME280;7845;53.698;10.078;2023-05-09T06:16:48;101451.66;;;17.83;68.36
15487;BME280;7845;53.698;10.078;2023-05-09T06:19:13;101453.69;;;17.73;70.06
15487;BME280;7845;53.698;10.078;2023-05-09T06:21:39;101456.88;;;18.16;69.59
15487;BME280;7845;53.698;10.078;2023-05-09T06:24:04;101442.59;;;18.23;68.83
15487;BME280;7845;53.698;10.078;2023-05-09T06:26:30;101447.88;;;18.23;68.14
15487;BME280;7845;53.698;10.078;2023-05-09T06:28:55;101452.34;;;18.21;69.17
15487;BME280;7845;53.698;10.078;2023-05-09T06:31:20;101463.03;;;18.17;69.80
15487;BME280;7845;53.698;10.078;2023-05-09T06:33:46;101461.31;;;17.84;70.08
15487;BME280;7845;53.698;10.078;2023-05-09T06:36:11;101452.75;;;17.74;70.29
15487;BME280;7845;53.698;10.078;2023-05-09T06:38:38;101447.94;;;17.90;69.96
15487;BME280;7845;53.698;10.078;2023-05-09T06:41:03;101441.44;;;17.71;71.83
15487;BME280;7845;53.698;10.078;2023-05-09T06:43:28;101445.63;;;17.78;71.64
15487;BME280;7845;53.698;10.078;2023-05-09T06:45:54;101437.34;;;17.91;71.04
15487;BME280;7845;53.698;10.078;2023-05-09T06:48:19;101440.22;;;18.14;71.98
15487;BME280;7845;53.698;10.078;2023-05-09T06:50:44;101428.41;;;17.95;70.46
15487;BME280;7845;53.698;10.078;2023-05-09T06:53:10;101427.09;;;18.10;71.12
15487;BME280;7845;53.698;10.078;2023-05-09T06:55:35;101416.97;;;18.25;70.89
15487;BME280;7845;53.698;10.078;2023-05-09T06:58:02;101413.88;;;18.11;71.03
15487;BME280;7845;53.698;10.078;2023-05-09T07:00:27;101405.97;;;18.10;71.58
15487;BME280;7845;53.698;10.078;2023-05-09T07:02:52;101410.94;;;17.91;72.49
15487;BME280;7845;53.698;10.078;2023-05-09T07:05:18;101405.97;;;18.10;72.44
15487;BME280;7845;53.698;10.078;2023-05-09T07:07:46;101399.25;;;18.29;72.13
15487;BME280;7845;53.698;10.078;2023-05-09T07:10:12;101400.34;;;18.53;72.24
15487;BME280;7845;53.698;10.078;2023-05-09T07:12:38;101392.97;;;18.33;71.91
15487;BME280;7845;53.698;10.078;2023-05-09T07:15:03;101388.97;;;18.49;71.85
15487;BME280;7845;53.698;10.078;2023-05-09T07:17:30;101392.69;;;18.71;72.00
15487;BME280;7845;53.698;10.078;2023-05-09T07:19:55;101391.50;;;18.82;70.90
15487;BME280;7845;53.698;10.078;2023-05-09T07:22:22;101388.25;;;19.00;70.59
15487;BME280;7845;53.698;10.078;2023-05-09T07:24:48;101386.94;;;18.87;70.83
15487;BME280;7845;53.698;10.078;2023-05-09T07:27:14;101378.94;;;18.88;71.38
15487;BME280;7845;53.698;10.078;2023-05-09T07:29:40;101379.28;;;19.05;69.81
15487;BME280;7845;53.698;10.078;2023-05-09T07:32:06;101382.66;;;19.09;71.46
15487;BME280;7845;53.698;10.078;2023-05-09T07:34:31;101380.22;;;19.03;71.08
15487;BME280;7845;53.698;10.078;2023-05-09T07:36:57;101372.44;;;19.24;70.67
15487;BME280;7845;53.698;10.078;2023-05-09T07:39:22;101375.97;;;19.23;71.69
15487;BME280;7845;53.698;10.078;2023-05-09T07:41:48;101369.63;;;19.29;71.14
15487;BME280;7845;53.698;10.078;2023-05-09T07:44:13;101357.91;;;19.11;71.42
15487;BME280;7845;53.698;10.078;2023-05-09T07:46:39;101358.78;;;19.37;71.63
15487;BME280;7845;53.698;10.078;2023-05-09T07:49:06;101350.72;;;19.41;71.43
15487;BME280;7845;53.698;10.078;2023-05-09T07:51:31;101346.72;;;19.28;72.19
15487;BME280;7845;53.698;10.078;2023-05-09T07:53:57;101337.53;;;19.40;71.91
15487;BME280;7845;53.698;10.078;2023-05-09T07:56:22;101333.63;;;19.50;71.30
15487;BME280;7845;53.698;10.078;2023-05-09T07:58:47;101327.25;;;19.80;70.33
15487;BME280;7845;53.698;10.078;2023-05-09T08:01:13;101322.50;;;19.88;70.68
15487;BME280;7845;53.698;10.078;2023-05-09T08:03:38;101321.28;;;19.97;71.29
15487;BME280;7845;53.698;10.078;2023-05-09T08:06:04;101321.19;;;20.00;70.08
15487;BME280;7845;53.698;10.078;2023-05-09T08:08:29;101318.31;;;20.06;70.52
15487;BME280;7845;53.698;10.078;2023-05-09T08:10:55;101325.47;;;20.04;70.21
15487;BME280;7845;53.698;10.078;2023-05-09T08:13:23;101310.91;;;20.14;69.44
15487;BME280;7845;53.698;10.078;2023-05-09T08:15:49;101308.09;;;20.41;69.08
15487;BME280;7845;53.698;10.078;2023-05-09T08:18:14;101312.75;;;20.35;68.58
15487;BME280;7845;53.698;10.078;2023-05-09T08:20:40;101315.38;;;20.36;69.95
15487;BME280;7845;53.698;10.078;2023-05-09T08:23:06;101298.16;;;20.47;70.46
15487;BME280;7845;53.698;10.078;2023-05-09T08:25:31;101283.47;;;20.60;70.63
15487;BME280;7845;53.698;10.078;2023-05-09T08:27:57;101279.22;;;20.56;68.74
15487;BME280;7845;53.698;10.078;2023-05-09T08:30:22;101284.81;;;20.70;68.47
15487;BME280;7845;53.698;10.078;2023-05-09T08:32:47;101276.13;;;20.66;68.97
15487;BME280;7845;53.698;10.078;2023-05-09T08:35:13;101276.03;;;20.89;68.65
15487;BME280;7845;53.698;10.078;2023-05-09T08:37:38;101277.28;;;20.81;69.07
15487;BME280;7845;53.698;10.078;2023-05-09T08:40:04;101281.38;;;20.88;69.15
15487;BME280;7845;53.698;10.078;2023-05-09T08:42:35;101275.94;;;20.91;68.34
15487;BME280;7845;53.698;10.078;2023-05-09T08:45:10;101274.66;;;21.01;67.49
15487;BME280;7845;53.698;10.078;2023-05-09T08:47:37;101274.44;;;21.06;66.59
15487;BME280;7845;53.698;10.078;2023-05-09T08:50:03;101261.09;;;21.07;66.27
15487;BME280;7845;53.698;10.078;2023-05-09T08:52:31;101251.16;;;21.12;65.47
15487;BME280;7845;53.698;10.078;2023-05-09T08:54:56;101263.13;;;21.22;66.61
15487;BME280;7845;53.698;10.078;2023-05-09T08:57:22;101252.84;;;21.35;67.18
15487;BME280;7845;53.698;10.078;2023-05-09T08:59:48;101252.38;;;21.25;66.32
15487;BME280;7845;53.698;10.078;2023-05-09T09:02:15;101251.72;;;21.20;66.34
15487;BME280;7845;53.698;10.078;2023-05-09T09:04:41;101251.03;;;21.35;65.72
15487;BME280;7845;53.698;10.078;2023-05-09T09:07:09;101245.19;;;21.27;64.49
15487;BME280;7845;53.698;10.078;2023-05-09T09:09:38;101238.28;;;21.43;64.60
15487;BME280;7845;53.698;10.078;2023-05-09T09:12:08;101235.81;;;21.39;64.39
15487;BME280;7845;53.698;10.078;2023-05-09T09:14:37;101235.25;;;21.51;62.91
15487;BME280;7845;53.698;10.078;2023-05-09T09:17:04;101230.75;;;21.72;62.43
15487;BME280;7845;53.698;10.078;2023-05-09T09:19:32;101220.28;;;21.50;63.06
15487;BME280;7845;53.698;10.078;2023-05-09T09:21:58;101233.50;;;21.70;63.51
15487;BME280;7845;53.698;10.078;2023-05-09T09:24:26;101220.41;;;21.84;62.73
15487;BME280;7845;53.698;10.078;2023-05-09T09:26:51;101226.38;;;21.71;63.06
15487;BME280;7845;53.698;10.078;2023-05-09T09:29:17;101230.03;;;21.87;63.24
15487;BME280;7845;53.698;10.078;2023-05-09T09:31:44;101226.97;;;21.96;63.58
15487;BME280;7845;53.698;10.078;2023-05-09T09:34:11;101219.66;;;22.01;62.11
15487;BME280;7845;53.698;10.078;2023-05-09T09:36:38;101211.53;;;22.04;61.68
15487;BME280;7845;53.698;10.078;2023-05-09T09:39:04;101214.38;;;22.18;61.08
15487;BME280;7845;53.698;10.078;2023-05-09T09:41:33;101219.78;;;22.17;61.77
15487;BME280;7845;53.698;10.078;2023-05-09T09:44:08;101211.59;;;22.21;60.88
15487;BME280;7845;53.698;10.078;2023-05-09T09:46:50;101205.97;;;22.27;60.33
15487;BME280;7845;53.698;10.078;2023-05-09T09:49:19;101196.78;;;22.16;60.34
15487;BME280;7845;53.698;10.078;2023-05-09T09:51:52;101190.06;;;22.26;60.45
15487;BME280;7845;53.698;10.078;2023-05-09T09:54:18;101188.16;;;22.11;60.38
15487;BME280;7845;53.698;10.078;2023-05-09T09:56:46;101182.84;;;22.11;59.98
15487;BME280;7845;53.698;10.078;2023-05-09T09:59:13;101188.75;;;22.34;60.03
15487;BME280;7845;53.698;10.078;2023-05-09T10:04:19;101176.53;;;22.66;60.98
15487;BME280;7845;53.698;10.078;2023-05-09T10:06:56;101174.78;;;22.65;59.54
15487;BME280;7845;53.698;10.078;2023-05-09T10:09:23;101175.97;;;22.77;60.11
15487;BME280;7845;53.698;10.078;2023-05-09T10:11:50;101163.75;;;22.90;58.17
15487;BME280;7845;53.698;10.078;2023-05-09T10:14:17;101167.03;;;22.78;58.43
15487;BME280;7845;53.698;10.078;2023-05-09T10:16:49;101153.16;;;22.88;56.83
15487;BME280;7845;53.698;10.078;2023-05-09T10:19:19;101164.63;;;22.90;56.75
15487;BME280;7845;53.698;10.078;2023-05-09T10:21:50;101142.47;;;22.73;54.24
15487;BME280;7845;53.698;10.078;2023-05-09T10:24:21;101138.88;;;23.06;54.17
15487;BME280;7845;53.698;10.078;2023-05-09T10:26:52;101140.66;;;23.06;54.81
15487;BME280;7845;53.698;10.078;2023-05-09T10:29:24;101129.50;;;22.99;53.84
15487;BME280;7845;53.698;10.078;2023-05-09T10:31:53;101125.94;;;22.83;53.58
15487;BME280;7845;53.698;10.078;2023-05-09T10:34:24;101110.72;;;23.02;52.16
15487;BME280;7845;53.698;10.078;2023-05-09T10:36:50;101108.97;;;23.01;51.79
15487;BME280;7845;53.698;10.078;2023-05-09T10:39:17;101106.50;;;23.30;51.77
15487;BME280;7845;53.698;10.078;2023-05-09T10:41:43;101099.78;;;23.40;52.67
15487;BME280;7845;53.698;10.078;2023-05-09T10:44:09;101105.28;;;23.52;54.17
15487;BME280;7845;53.698;10.078;2023-05-09T10:46:34;101102.34;;;23.73;54.83
15487;BME280;7845;53.698;10.078;2023-05-09T10:49:02;101104.09;;;23.74;55.73
15487;BME280;7845;53.698;10.078;2023-05-09T10:51:28;101088.78;;;23.77;53.68
15487;BME280;7845;53.698;10.078;2023-05-09T10:53:56;101085.78;;;23.67;52.10
15487;BME280;7845;53.698;10.078;2023-05-09T10:56:25;101083.00;;;23.69;52.66
15487;BME280;7845;53.698;10.078;2023-05-09T10:58:53;101065.72;;;23.60;51.77
15487;BME280;7845;53.698;10.078;2023-05-09T11:01:55;101061.94;;;23.64;52.11
15487;BME280;7845;53.698;10.078;2023-05-09T11:04:26;101050.84;;;24.02;52.12
15487;BME280;7845;53.698;10.078;2023-05-09T11:06:52;101058.09;;;24.15;53.00
15487;BME280;7845;53.698;10.078;2023-05-09T11:11:51;101045.09;;;24.09;51.07
15487;BME280;7845;53.698;10.078;2023-05-09T11:14:41;101039.50;;;24.14;50.35
15487;BME280;7845;53.698;10.078;2023-05-09T11:22:15;101019.50;;;24.21;49.25
15487;BME280;7845;53.698;10.078;2023-05-09T11:24:45;101031.19;;;24.48;49.73
15487;BME280;7845;53.698;10.078;2023-05-09T11:27:22;101021.50;;;24.17;49.02
15487;BME280;7845;53.698;10.078;2023-05-09T11:29:51;101013.66;;;24.72;49.80
15487;BME280;7845;53.698;10.078;2023-05-09T11:32:17;101006.66;;;24.56;48.68
15487;BME280;7845;53.698;10.078;2023-05-09T11:34:43;100990.38;;;24.89;47.36
15487;BME280;7845;53.698;10.078;2023-05-09T11:37:11;100988.28;;;24.65;47.71
15487;BME280;7845;53.698;10.078;2023-05-09T11:40:00;100988.25;;;25.08;47.00
15487;BME280;7845;53.698;10.078;2023-05-09T11:42:29;100976.50;;;25.10;47.28
15487;BME280;7845;53.698;10.078;2023-05-09T11:44:56;100968.56;;;25.23;46.85
15487;BME280;7845;53.698;10.078;2023-05-09T11:47:21;100968.16;;;24.88;44.23
15487;BME280;7845;53.698;10.078;2023-05-09T11:49:48;100948.66;;;25.14;43.62
15487;BME280;7845;53.698;10.078;2023-05-09T11:52:20;100952.81;;;25.18;44.71
15487;BME280;7845;53.698;10.078;2023-05-09T11:54:46;100937.03;;;25.28;43.00
15487;BME280;7845;53.698;10.078;2023-05-09T11:57:15;100951.78;;;25.07;43.85
15487;BME280;7845;53.698;10.078;2023-05-09T11:59:44;100959.09;;;25.58;45.62
15487;BME280;7845;53.698;10.078;2023-05-09T12:02:09;100961.31;;;25.52;44.74
15487;BME280;7845;53.698;10.078;2023-05-09T12:04:35;100930.84;;;25.54;42.95
15487;BME280;7845;53.698;10.078;2023-05-09T12:07:01;100939.00;;;25.65;42.19
15487;BME280;7845;53.698;10.078;2023-05-09T12:09:31;100928.78;;;25.97;43.24
15487;BME280;7845;53.698;10.078;2023-05-09T12:11:57;100934.88;;;25.99;43.19
15487;BME280;7845;53.698;10.078;2023-05-09T12:14:29;100935.09;;;25.83;42.43
15487;BME280;7845;53.698;10.078;2023-05-09T12:16:55;100925.44;;;25.68;41.67
15487;BME280;7845;53.698;10.078;2023-05-09T12:19:24;100924.91;;;25.89;42.68
15487;BME280;7845;53.698;10.078;2023-05-09T12:22:08;100915.50;;;25.83;42.01
15487;BME280;7845;53.698;10.078;2023-05-09T12:24:34;100910.56;;;26.02;42.15
15487;BME280;7845;53.698;10.078;2023-05-09T12:27:01;100911.34;;;26.04;41.97
15487;BME280;7845;53.698;10.078;2023-05-09T12:29:27;100912.38;;;26.02;40.91
15487;BME280;7845;53.698;10.078;2023-05-09T12:31:55;100910.03;;;25.97;41.19
15487;BME280;7845;53.698;10.078;2023-05-09T12:34:22;100911.56;;;26.26;41.26
15487;BME280;7845;53.698;10.078;2023-05-09T12:36:47;100913.06;;;26.30;41.54
15487;BME280;7845;53.698;10.078;2023-05-09T12:39:16;100915.19;;;26.25;40.55
15487;BME280;7845;53.698;10.078;2023-05-09T12:41:50;100924.28;;;26.10;41.21
15487;BME280;7845;53.698;10.078;2023-05-09T12:44:23;100911.44;;;26.40;41.75
15487;BME280;7845;53.698;10.078;2023-05-09T12:47:00;100909.59;;;26.66;41.38
15487;BME280;7845;53.698;10.078;2023-05-09T12:49:27;100918.84;;;26.24;41.23
15487;BME280;7845;53.698;10.078;2023-05-09T12:52:00;100907.41;;;26.71;40.61
15487;BME280;7845;53.698;10.078;2023-05-09T12:54:26;100905.19;;;26.65;40.92
15487;BME280;7845;53.698;10.078;2023-05-09T12:56:53;100921.59;;;26.61;40.84
15487;BME280;7845;53.698;10.078;2023-05-09T12:59:23;100901.97;;;26.73;40.29
15487;BME280;7845;53.698;10.078;2023-05-09T13:01:56;100905.81;;;26.69;39.87
15487;BME280;7845;53.698;10.078;2023-05-09T13:04:28;100908.16;;;26.86;41.50
15487;BME280;7845;53.698;10.078;2023-05-09T13:06:55;100905.72;;;27.07;40.90
15487;BME280;7845;53.698;10.078;2023-05-09T13:09:22;100905.53;;;26.97;41.68
15487;BME280;7845;53.698;10.078;2023-05-09T13:11:49;100894.22;;;26.32;40.57